Time;durP1;ratioP1;P1;durP2;ratioP2;P2;SDS_P1;SDS_P2;PMS_P1;PMS_P2;Temp;Humidity;BMP_temperature;BMP_pressure;BME280_temperature;BME280_humidity;BME280_pressure;Samples;Min_cycle;Max_cycle;Signal;HPM_P1;HPM_P2
2023/10/04 00:00:51;;;;;;;27.60;25.85;;;15.90;99.90;;;;;;5052036;28;20045;-72
2023/10/04 00:03:18;;;;;;;27.00;25.15;;;16.00;99.90;;;;;;5053131;28;20048;-72
2023/10/04 00:05:44;;;;;;;27.17;24.67;;;15.90;99.90;;;;;;5052655;28;20040;-72
2023/10/04 00:08:10;;;;;;;31.33;29.17;;;15.90;99.90;;;;;;5052105;28;20028;-72
2023/10/04 00:10:36;;;;;;;37.60;35.35;;;15.90;99.90;;;;;;5052585;28;20464;-72
2023/10/04 00:13:03;;;;;;;34.78;32.35;;;15.90;99.90;;;;;;5062705;28;20040;-72
2023/10/04 00:15:31;;;;;;;37.83;35.45;;;15.80;99.90;;;;;;5051736;28;20045;-72
2023/10/04 00:17:57;;;;;;;35.28;33.08;;;15.90;99.90;;;;;;5051976;28;20405;-72
2023/10/04 00:20:31;;;;;;;38.22;35.88;;;15.90;99.90;;;;;;5052415;28;20045;-72
2023/10/04 00:22:58;;;;;;;28.92;26.77;;;15.80;99.90;;;;;;5052842;28;20048;-72
2023/10/04 00:25:24;;;;;;;31.02;29.10;;;15.80;99.90;;;;;;5055945;28;20049;-72
2023/10/04 00:27:52;;;;;;;30.20;28.20;;;15.80;99.90;;;;;;5058690;28;20036;-72
2023/10/04 00:30:18;;;;;;;27.73;25.92;;;15.80;99.90;;;;;;5069144;28;20040;-71
2023/10/04 00:32:46;;;;;;;32.08;29.83;;;15.70;99.90;;;;;;5052717;28;20499;-72
2023/10/04 00:35:19;;;;;;;32.17;29.95;;;15.60;99.90;;;;;;5067454;28;20028;-72
2023/10/04 00:37:51;;;;;;;24.95;23.05;;;15.50;99.90;;;;;;5053461;28;20044;-72
2023/10/04 00:40:23;;;;;;;29.65;27.67;;;15.40;99.90;;;;;;5065892;28;20495;-72
2023/10/04 00:42:50;;;;;;;23.73;22.13;;;15.50;99.90;;;;;;5052221;28;20032;-72
2023/10/04 00:45:17;;;;;;;20.20;18.60;;;15.50;99.90;;;;;;5051679;28;20029;-72
2023/10/04 00:47:47;;;;;;;20.27;18.65;;;15.40;99.90;;;;;;5051908;28;20045;-72
2023/10/04 00:50:22;;;;;;;24.75;22.75;;;15.40;99.90;;;;;;5051015;28;20056;-72
2023/10/04 00:53:08;;;;;;;22.77;21.25;;;15.30;99.90;;;;;;5052006;28;20053;-72
2023/10/04 00:55:40;;;;;;;25.08;23.45;;;15.30;99.90;;;;;;5051191;28;20044;-73
2023/10/04 00:58:07;;;;;;;23.35;21.83;;;15.20;99.90;;;;;;5053240;28;20036;-72
2023/10/04 01:00:34;;;;;;;19.58;18.13;;;15.20;99.90;;;;;;5049211;28;20408;-72
2023/10/04 01:03:00;;;;;;;23.50;21.75;;;15.20;99.90;;;;;;5051887;28;20029;-72
2023/10/04 01:05:27;;;;;;;18.05;16.83;;;15.30;99.90;;;;;;5051490;28;20033;-72
2023/10/04 01:07:53;;;;;;;18.95;17.55;;;15.30;99.90;;;;;;5051058;28;20028;-73
2023/10/04 01:10:32;;;;;;;16.88;15.48;;;15.30;99.90;;;;;;5050824;28;20048;-72
2023/10/04 01:13:00;;;;;;;17.02;15.65;;;15.20;99.90;;;;;;5046097;28;20076;-72
2023/10/04 01:15:30;;;;;;;22.10;20.40;;;15.20;99.90;;;;;;5050310;28;20056;-72
2023/10/04 01:17:57;;;;;;;21.48;20.08;;;15.20;99.90;;;;;;5050991;28;20391;-72
2023/10/04 01:20:30;;;;;;;18.85;17.33;;;15.10;99.90;;;;;;5050889;28;20072;-72
2023/10/04 01:23:06;;;;;;;19.98;18.58;;;15.10;99.90;;;;;;5039309;28;20037;-72
2023/10/04 01:25:33;;;;;;;19.80;18.33;;;15.10;99.90;;;;;;5033759;28;20045;-72
2023/10/04 01:28:02;;;;;;;17.52;16.33;;;15.00;99.90;;;;;;5051507;28;21711;-72
2023/10/04 01:30:29;;;;;;;17.08;15.70;;;15.00;99.90;;;;;;5050598;28;20037;-72
2023/10/04 01:32:55;;;;;;;18.05;16.75;;;15.00;99.90;;;;;;5054262;28;20045;-72
2023/10/04 01:35:24;;;;;;;19.90;18.40;;;14.90;99.90;;;;;;5050926;28;20048;-72
2023/10/04 01:37:51;;;;;;;17.55;16.45;;;14.90;99.90;;;;;;5051104;28;20041;-72
2023/10/04 01:40:19;;;;;;;18.83;17.70;;;14.80;99.90;;;;;;5050447;28;20053;-72
2023/10/04 01:42:45;;;;;;;18.45;17.10;;;14.90;99.90;;;;;;5051691;28;20045;-72
2023/10/04 01:45:15;;;;;;;19.30;18.02;;;14.90;99.90;;;;;;5045231;28;20025;-72
2023/10/04 01:47:42;;;;;;;17.60;16.40;;;14.90;99.90;;;;;;5053661;28;20041;-72
2023/10/04 01:50:09;;;;;;;18.50;17.10;;;14.90;99.90;;;;;;5052950;28;20059;-72
2023/10/04 01:52:36;;;;;;;18.35;16.98;;;14.90;99.90;;;;;;5061098;28;20514;-72
2023/10/04 01:55:05;;;;;;;18.50;17.30;;;14.90;99.90;;;;;;5055069;28;20033;-72
2023/10/04 01:57:34;;;;;;;17.17;15.80;;;14.90;99.90;;;;;;5054081;28;20135;-73
2023/10/04 02:00:01;;;;;;;17.40;16.05;;;14.90;99.90;;;;;;5054592;28;20037;-72
2023/10/04 02:02:27;;;;;;;18.83;17.45;;;14.90;99.90;;;;;;5053684;28;20029;-72
2023/10/04 02:04:54;;;;;;;16.70;15.50;;;14.90;99.90;;;;;;5054185;28;20052;-73
2023/10/04 02:07:23;;;;;;;21.13;19.77;;;14.80;99.90;;;;;;5052421;28;20048;-72
2023/10/04 02:09:51;;;;;;;19.30;17.63;;;14.80;99.90;;;;;;5054179;28;20391;-72
2023/10/04 02:12:18;;;;;;;20.20;18.77;;;14.80;99.90;;;;;;5051654;28;20041;-72
2023/10/04 02:14:46;;;;;;;19.60;18.23;;;14.80;99.90;;;;;;5054271;28;20049;-72
2023/10/04 02:17:16;;;;;;;19.52;18.17;;;14.80;99.90;;;;;;5053660;28;20044;-72
2023/10/04 02:19:45;;;;;;;19.20;17.90;;;14.80;99.90;;;;;;5053915;28;20388;-72
2023/10/04 02:22:12;;;;;;;17.08;15.73;;;14.70;99.90;;;;;;5054209;28;20033;-72
2023/10/04 02:24:38;;;;;;;17.88;16.75;;;14.70;99.90;;;;;;5053748;28;20503;-72
2023/10/04 02:27:08;;;;;;;18.15;16.80;;;14.70;99.90;;;;;;5054235;28;20348;-72
2023/10/04 02:29:35;;;;;;;17.60;16.33;;;14.70;99.90;;;;;;5054136;28;20029;-72
2023/10/04 02:32:08;;;;;;;18.83;17.63;;;14.60;99.90;;;;;;5054353;28;20045;-72
2023/10/04 02:34:41;;;;;;;18.63;17.17;;;14.60;99.90;;;;;;5054813;28;20494;-72
2023/10/04 02:37:07;;;;;;;17.05;15.77;;;14.60;99.90;;;;;;5053811;28;20071;-72
2023/10/04 02:39:37;;;;;;;17.08;15.88;;;14.50;99.90;;;;;;5054411;28;20498;-72
2023/10/04 02:42:09;;;;;;;19.40;17.80;;;14.50;99.90;;;;;;5056393;28;20060;-72
2023/10/04 02:44:36;;;;;;;16.48;15.10;;;14.40;99.90;;;;;;5054507;28;20036;-72
2023/10/04 02:47:06;;;;;;;17.85;16.75;;;14.40;99.90;;;;;;5053891;28;20040;-72
2023/10/04 02:49:38;;;;;;;16.50;15.18;;;14.40;99.90;;;;;;5053948;28;20041;-72
2023/10/04 02:52:06;;;;;;;27.45;16.75;;;14.50;99.90;;;;;;5061489;28;20021;-72
2023/10/04 02:54:33;;;;;;;19.75;15.07;;;14.40;99.90;;;;;;5074377;28;20029;-72
2023/10/04 02:57:00;;;;;;;17.52;16.27;;;14.40;99.90;;;;;;5058889;28;20047;-72
2023/10/04 02:59:27;;;;;;;18.15;16.67;;;14.40;99.90;;;;;;5053468;28;20036;-72
2023/10/04 03:01:54;;;;;;;17.50;16.35;;;14.40;99.90;;;;;;5051273;28;20044;-72
2023/10/04 03:04:20;;;;;;;19.40;18.17;;;14.30;99.90;;;;;;5067532;28;20041;-72
2023/10/04 03:06:47;;;;;;;19.23;18.00;;;14.20;99.90;;;;;;5059304;28;20052;-70
2023/10/04 03:09:13;;;;;;;18.42;17.33;;;14.20;99.90;;;;;;5054011;28;20033;-72
2023/10/04 03:11:42;;;;;;;16.60;15.55;;;14.20;99.90;;;;;;5053318;28;20033;-72
2023/10/04 03:14:11;;;;;;;19.08;17.90;;;14.20;99.90;;;;;;5053711;28;20045;-71
2023/10/04 03:16:40;;;;;;;20.67;19.48;;;14.10;99.90;;;;;;5053087;28;20475;-72
2023/10/04 03:19:07;;;;;;;16.05;14.95;;;14.00;99.90;;;;;;5053748;28;20053;-72
2023/10/04 03:21:33;;;;;;;14.73;13.60;;;14.00;99.90;;;;;;5052959;28;20045;-72
2023/10/04 03:24:00;;;;;;;16.35;15.25;;;14.00;99.90;;;;;;5053984;28;20048;-72
2023/10/04 03:26:26;;;;;;;19.33;18.00;;;14.00;99.90;;;;;;5052794;28;20395;-72
2023/10/04 03:28:52;;;;;;;20.27;18.90;;;14.00;99.90;;;;;;5053180;28;20025;-72
2023/10/04 03:31:20;;;;;;;18.35;17.23;;;13.90;99.90;;;;;;5050255;28;20040;-72
2023/10/04 03:33:48;;;;;;;18.80;17.65;;;13.80;99.90;;;;;;5046312;28;20028;-72
2023/10/04 03:36:18;;;;;;;16.42;15.32;;;13.80;99.90;;;;;;5048361;28;20049;-72
2023/10/04 03:38:45;;;;;;;14.35;13.15;;;13.90;99.90;;;;;;5048635;28;20044;-72
2023/10/04 03:41:12;;;;;;;13.95;12.80;;;13.90;99.90;;;;;;5057890;28;20510;-72
2023/10/04 03:43:40;;;;;;;15.73;14.27;;;13.90;99.90;;;;;;5053239;28;20111;-72
2023/10/04 03:46:28;;;;;;;13.63;12.75;;;13.90;99.90;;;;;;5054901;28;20044;-70
2023/10/04 03:48:53;;;;;;;13.55;12.65;;;13.90;99.90;;;;;;5063733;28;20029;-73
2023/10/04 03:51:20;;;;;;;13.55;12.63;;;13.90;99.90;;;;;;5049459;28;20503;-72
2023/10/04 03:53:47;;;;;;;15.57;14.57;;;13.80;99.90;;;;;;5052891;28;20048;-72
2023/10/04 03:56:17;;;;;;;15.23;14.07;;;13.80;99.90;;;;;;5052948;28;20475;-72
2023/10/04 03:58:44;;;;;;;15.70;14.80;;;13.80;99.90;;;;;;5051770;28;20044;-72
2023/10/04 04:01:10;;;;;;;17.52;16.30;;;13.80;99.90;;;;;;5048773;28;20053;-72
2023/10/04 04:03:36;;;;;;;17.00;15.88;;;13.80;99.90;;;;;;5050505;28;20040;-72
2023/10/04 04:06:03;;;;;;;15.20;14.00;;;13.80;99.90;;;;;;5051991;28;20419;-72
2023/10/04 04:08:30;;;;;;;15.40;14.05;;;13.80;99.90;;;;;;5052290;28;20423;-73
2023/10/04 04:10:56;;;;;;;17.08;16.08;;;13.70;99.90;;;;;;5051796;28;20029;-72
2023/10/04 04:13:23;;;;;;;15.23;14.15;;;13.70;99.90;;;;;;5039276;28;20032;-72
2023/10/04 04:15:51;;;;;;;13.88;12.85;;;13.70;99.90;;;;;;5035426;28;20451;-72
2023/10/04 04:18:20;;;;;;;16.15;15.10;;;13.70;99.90;;;;;;5052251;28;20107;-72
2023/10/04 04:20:47;;;;;;;14.65;13.85;;;13.60;99.90;;;;;;5051218;28;20052;-71
2023/10/04 04:23:16;;;;;;;20.42;19.38;;;13.60;99.90;;;;;;5051861;28;20021;-72
2023/10/04 04:25:43;;;;;;;14.50;13.70;;;13.50;99.90;;;;;;5051653;28;20037;-72
2023/10/04 04:28:13;;;;;;;13.23;12.48;;;13.50;99.90;;;;;;5049439;28;20045;-72
2023/10/04 04:30:39;;;;;;;12.85;12.15;;;13.60;99.90;;;;;;5051344;28;20040;-72
2023/10/04 04:33:07;;;;;;;18.23;17.20;;;13.50;99.90;;;;;;5052018;28;20047;-72
2023/10/04 04:38:24;;;;;;;28.45;26.50;;;13.40;99.90;;;;;;5057641;28;20021;-72
2023/10/04 04:40:58;;;;;;;28.27;26.42;;;13.30;99.90;;;;;;5051066;28;20053;-72
2023/10/04 04:43:36;;;;;;;26.95;25.38;;;13.40;99.90;;;;;;5052007;28;20056;-73
2023/10/04 04:46:06;;;;;;;27.60;25.67;;;13.40;99.90;;;;;;5050749;28;20400;-72
2023/10/04 04:48:36;;;;;;;28.92;27.48;;;13.30;99.90;;;;;;5051056;28;20041;-72
2023/10/04 04:51:04;;;;;;;26.88;25.52;;;13.30;99.90;;;;;;5050541;28;20056;-72
2023/10/04 04:53:33;;;;;;;13.60;12.90;;;13.30;99.90;;;;;;5050705;28;20048;-72
2023/10/04 04:56:00;;;;;;;15.85;15.05;;;13.20;99.90;;;;;;5051093;28;20048;-72
2023/10/04 04:58:28;;;;;;;23.13;21.92;;;13.20;99.90;;;;;;5051606;28;20056;-72
2023/10/04 05:01:02;;;;;;;28.85;27.40;;;13.10;99.90;;;;;;5050541;28;20048;-72
2023/10/04 05:03:28;;;;;;;39.63;37.53;;;13.10;99.90;;;;;;5051999;28;20582;-72
2023/10/04 05:05:58;;;;;;;32.50;30.90;;;13.00;99.90;;;;;;5051326;28;20392;-72
2023/10/04 05:08:27;;;;;;;14.10;13.30;;;13.10;99.90;;;;;;5051594;28;20033;-72
2023/10/04 05:10:57;;;;;;;14.40;13.70;;;13.10;99.90;;;;;;5050984;28;20033;-72
2023/10/04 05:13:23;;;;;;;14.15;13.45;;;13.00;99.90;;;;;;5052010;28;20029;-72
2023/10/04 05:15:49;;;;;;;18.10;17.20;;;12.90;99.90;;;;;;5050373;28;20041;-72
2023/10/04 05:18:17;;;;;;;14.55;13.80;;;13.00;99.90;;;;;;5051488;28;20029;-72
2023/10/04 05:20:51;;;;;;;18.55;17.65;;;13.00;99.90;;;;;;5051850;28;20044;-72
2023/10/04 05:23:24;;;;;;;30.92;29.13;;;13.00;99.90;;;;;;5055337;28;20037;-72
2023/10/04 05:25:53;;;;;;;27.88;26.42;;;12.90;99.90;;;;;;5054800;28;20391;-72
2023/10/04 05:28:19;;;;;;;20.90;19.73;;;12.90;99.90;;;;;;5054805;28;20025;-72
2023/10/04 05:30:46;;;;;;;26.60;24.95;;;12.80;99.90;;;;;;5054710;28;20037;-72
2023/10/04 05:33:16;;;;;;;30.02;28.33;;;12.80;99.90;;;;;;5055523;28;20032;-72
2023/10/04 05:35:46;;;;;;;32.03;30.48;;;12.80;99.90;;;;;;5048350;28;20044;-71
2023/10/04 05:38:14;;;;;;;47.88;19.98;;;12.80;99.90;;;;;;5060502;28;20025;-72
2023/10/04 05:40:43;;;;;;;30.65;23.20;;;12.80;99.90;;;;;;5068792;28;20049;-71
2023/10/04 05:43:10;;;;;;;13.38;12.38;;;12.90;99.90;;;;;;5062036;28;20040;-72
2023/10/04 05:45:36;;;;;;;16.88;15.27;;;12.80;99.90;;;;;;5056751;28;20036;-72
2023/10/04 05:48:05;;;;;;;17.30;16.20;;;12.80;99.90;;;;;;5053940;28;20056;-71
2023/10/04 05:50:34;;;;;;;23.40;14.00;;;12.80;99.90;;;;;;5047402;28;20033;-72
2023/10/04 05:53:01;;;;;;;12.60;11.77;;;12.80;99.90;;;;;;5048894;28;20033;-71
2023/10/04 05:55:27;;;;;;;12.43;11.77;;;12.80;99.90;;;;;;5039247;28;20037;-72
2023/10/04 05:57:53;;;;;;;13.10;12.00;;;12.80;99.90;;;;;;5055167;28;20036;-72
2023/10/04 06:00:25;;;;;;;14.07;13.32;;;12.80;99.90;;;;;;5054279;28;20049;-72
2023/10/04 06:02:55;;;;;;;16.17;15.10;;;12.70;99.90;;;;;;5054181;28;20045;-71
2023/10/04 06:05:22;;;;;;;15.18;14.32;;;12.70;99.90;;;;;;5054367;28;20488;-72
2023/10/04 06:07:52;;;;;;;14.35;13.57;;;12.70;99.90;;;;;;5045134;28;20386;-71
2023/10/04 06:10:18;;;;;;;15.60;14.65;;;12.70;99.90;;;;;;5047771;28;20032;-71
2023/10/04 06:12:47;;;;;;;15.98;15.13;;;12.70;99.90;;;;;;5054224;28;20378;-71
2023/10/04 06:15:16;;;;;;;13.35;12.63;;;12.80;99.90;;;;;;5052338;28;20395;-71
2023/10/04 06:17:46;;;;;;;16.05;15.02;;;12.80;99.90;;;;;;5034360;28;20030;-72
2023/10/04 06:20:31;;;;;;;14.93;13.93;;;12.80;99.90;;;;;;5034326;28;20049;-71
2023/10/04 06:23:00;;;;;;;14.48;13.68;;;12.90;99.90;;;;;;5046714;28;20045;-71
2023/10/04 06:25:27;;;;;;;15.82;14.82;;;12.80;99.90;;;;;;5034812;28;20033;-72
2023/10/04 06:27:55;;;;;;;16.30;15.10;;;12.90;99.90;;;;;;5033380;28;20025;-72
2023/10/04 06:30:31;;;;;;;15.60;14.63;;;12.90;99.90;;;;;;5033659;28;20473;-71
2023/10/04 06:33:03;;;;;;;15.40;14.57;;;12.90;99.90;;;;;;5027794;28;20040;-71
2023/10/04 06:35:29;;;;;;;17.77;16.85;;;12.80;99.90;;;;;;5034312;28;20388;-71
2023/10/04 06:37:58;;;;;;;18.33;17.27;;;12.80;99.90;;;;;;5034360;28;20037;-72
2023/10/04 06:40:24;;;;;;;17.17;16.08;;;12.80;99.90;;;;;;5033653;28;20068;-71
2023/10/04 06:42:52;;;;;;;17.80;16.67;;;12.80;99.90;;;;;;5033973;28;20044;-71
2023/10/04 06:45:20;;;;;;;18.27;17.08;;;12.90;99.90;;;;;;5031457;28;20101;-72
2023/10/04 06:47:50;;;;;;;15.02;13.82;;;12.90;99.90;;;;;;5040801;28;20037;-73
2023/10/04 06:50:32;;;;;;;15.13;14.13;;;12.90;99.90;;;;;;5033393;28;20036;-72
2023/10/04 06:52:59;;;;;;;17.45;16.30;;;13.00;99.90;;;;;;5025240;28;20310;-72
2023/10/04 06:55:25;;;;;;;13.95;12.88;;;13.00;99.90;;;;;;5018893;28;20029;-71
2023/10/04 06:57:51;;;;;;;14.15;13.05;;;13.00;99.90;;;;;;5033580;28;20028;-71
2023/10/04 07:00:18;;;;;;;13.50;12.73;;;13.00;99.90;;;;;;5033602;28;20030;-71
2023/10/04 07:02:49;;;;;;;17.02;15.85;;;13.00;99.90;;;;;;5034494;28;20036;-72
2023/10/04 07:05:20;;;;;;;16.08;15.07;;;13.00;99.90;;;;;;5032723;28;20133;-71
2023/10/04 07:07:47;;;;;;;17.60;16.27;;;13.10;99.90;;;;;;5034191;28;20026;-72
2023/10/04 07:10:20;;;;;;;20.77;19.35;;;13.10;99.90;;;;;;5033695;28;20038;-72
2023/10/04 07:12:47;;;;;;;24.67;23.02;;;13.20;99.90;;;;;;5032867;28;20041;-72
2023/10/04 07:15:13;;;;;;;21.73;20.52;;;13.30;99.90;;;;;;5033221;28;20045;-72
2023/10/04 07:17:40;;;;;;;23.13;21.63;;;13.40;99.90;;;;;;5033058;28;20488;-72
2023/10/04 07:20:07;;;;;;;25.10;23.25;;;13.50;99.90;;;;;;5033422;28;20033;-72
2023/10/04 07:22:37;;;;;;;24.63;23.10;;;13.50;99.90;;;;;;5014165;28;20030;-72
2023/10/04 07:25:03;;;;;;;21.33;20.13;;;13.50;99.90;;;;;;5029098;28;20041;-72
2023/10/04 07:27:29;;;;;;;22.90;21.15;;;13.40;99.90;;;;;;5033190;28;20037;-72
2023/10/04 07:29:55;;;;;;;25.45;24.05;;;13.20;99.90;;;;;;5030811;28;20381;-72
2023/10/04 07:32:21;;;;;;;26.45;24.90;;;13.10;99.90;;;;;;5049904;28;20040;-72
2023/10/04 07:34:48;;;;;;;21.90;20.60;;;13.10;99.90;;;;;;5053445;28;20356;-71
2023/10/04 07:37:14;;;;;;;26.02;24.33;;;13.30;99.90;;;;;;5051672;28;20468;-72
2023/10/04 07:39:40;;;;;;;24.83;23.42;;;13.50;99.90;;;;;;5042743;28;20029;-72
2023/10/04 07:42:06;;;;;;;25.60;23.92;;;13.60;99.90;;;;;;5044333;28;20404;-72
2023/10/04 07:44:32;;;;;;;24.77;23.15;;;13.70;99.90;;;;;;5047694;28;20036;-72
2023/10/04 07:46:59;;;;;;;26.70;25.00;;;13.70;99.90;;;;;;5038817;28;20044;-72
2023/10/04 07:49:26;;;;;;;25.30;23.63;;;13.70;99.90;;;;;;5048761;28;20048;-72
2023/10/04 07:51:52;;;;;;;29.30;27.50;;;13.50;99.90;;;;;;5050794;28;20460;-71
2023/10/04 07:54:19;;;;;;;28.75;26.55;;;13.50;99.90;;;;;;5045983;28;20025;-73
2023/10/04 07:56:46;;;;;;;19.75;18.05;;;13.50;99.90;;;;;;5047443;28;20033;-72
2023/10/04 07:59:12;;;;;;;19.90;18.40;;;13.60;99.90;;;;;;5048900;28;20033;-72
2023/10/04 08:01:41;;;;;;;27.25;25.38;;;13.80;99.90;;;;;;5049946;28;20044;-72
2023/10/04 08:04:07;;;;;;;25.60;23.33;;;13.90;99.90;;;;;;5053092;28;20016;-71
2023/10/04 08:06:36;;;;;;;24.08;21.88;;;13.80;99.90;;;;;;5048368;28;20086;-71
2023/10/04 08:09:04;;;;;;;23.73;21.90;;;13.60;99.90;;;;;;5051013;28;20017;-72
2023/10/04 08:11:33;;;;;;;22.92;20.83;;;13.70;99.90;;;;;;5051971;28;20033;-71
2023/10/04 08:14:01;;;;;;;28.15;25.55;;;13.80;99.90;;;;;;5052737;28;20041;-72
2023/10/04 08:16:36;;;;;;;30.02;27.20;;;13.80;99.90;;;;;;5035890;27;20565;-73
2023/10/04 08:19:04;;;;;;;30.67;28.30;;;14.00;99.90;;;;;;5017745;28;20398;-73
2023/10/04 08:21:30;;;;;;;26.70;24.60;;;14.10;99.90;;;;;;5029338;28;20049;-72
2023/10/04 08:24:00;;;;;;;27.25;25.02;;;14.00;99.90;;;;;;5029647;28;20041;-72
2023/10/04 08:26:26;;;;;;;21.67;19.67;;;14.10;99.90;;;;;;5028780;28;20041;-73
2023/10/04 08:28:53;;;;;;;29.63;27.45;;;14.10;99.90;;;;;;5028782;28;20049;-73
2023/10/04 08:31:19;;;;;;;39.58;36.72;;;14.40;99.90;;;;;;5029140;28;20042;-72
2023/10/04 08:33:46;;;;;;;48.58;45.35;;;14.60;99.90;;;;;;5029008;28;20049;-72
2023/10/04 08:36:16;;;;;;;42.88;40.00;;;14.50;99.90;;;;;;5025134;28;20486;-72
2023/10/04 08:38:42;;;;;;;31.70;29.48;;;14.60;99.90;;;;;;5024577;28;20034;-73
2023/10/04 08:41:08;;;;;;;42.45;39.85;;;14.80;99.90;;;;;;5029145;28;20050;-73
2023/10/04 08:43:34;;;;;;;45.40;41.75;;;14.60;99.90;;;;;;5029196;28;20021;-72
2023/10/04 08:46:00;;;;;;;40.35;37.35;;;14.60;99.90;;;;;;5027260;28;20034;-72
2023/10/04 08:48:27;;;;;;;33.72;30.35;;;14.70;99.90;;;;;;5005892;28;20380;-72
2023/10/04 08:51:03;;;;;;;26.35;23.23;;;14.80;99.90;;;;;;5004912;28;20483;-73
2023/10/04 08:53:55;;;;;;;29.15;26.65;;;14.90;99.90;;;;;;4988792;28;20488;-72
2023/10/04 08:56:22;;;;;;;24.55;22.40;;;15.20;99.90;;;;;;5005971;28;20415;-72
2023/10/04 08:58:49;;;;;;;41.40;38.28;;;15.40;99.90;;;;;;5006934;28;20043;-73
2023/10/04 09:01:15;;;;;;;29.65;27.25;;;15.40;99.90;;;;;;5001987;28;20491;-73
2023/10/04 09:03:42;;;;;;;29.77;27.58;;;15.60;99.90;;;;;;5026491;28;20021;-72
2023/10/04 09:06:16;;;;;;;25.63;23.60;;;15.70;99.90;;;;;;5029875;28;20041;-71
2023/10/04 09:08:44;;;;;;;53.38;50.15;;;15.70;99.90;;;;;;5023522;28;20038;-72
2023/10/04 09:11:15;;;;;;;48.63;45.28;;;15.80;99.90;;;;;;5022226;28;20049;-71
2023/10/04 09:13:49;;;;;;;45.90;42.17;;;15.90;99.90;;;;;;5016533;28;20042;-72
2023/10/04 09:16:28;;;;;;;45.10;41.72;;;15.90;99.90;;;;;;5029279;28;20049;-71
2023/10/04 09:19:17;;;;;;;48.85;45.22;;;16.00;99.90;;;;;;5023986;28;20042;-72
2023/10/04 09:21:44;;;;;;;47.38;44.28;;;16.00;99.90;;;;;;5036654;28;20399;-72
2023/10/04 09:24:12;;;;;;;41.75;38.78;;;16.10;99.90;;;;;;5029606;28;20501;-71
2023/10/04 09:26:39;;;;;;;45.28;42.15;;;16.10;99.90;;;;;;5025078;28;20395;-71
2023/10/04 09:29:05;;;;;;;51.50;47.75;;;16.30;99.90;;;;;;5015194;28;20049;-73
2023/10/04 09:31:46;;;;;;;49.75;45.85;;;16.30;99.90;;;;;;5013281;28;20042;-73
2023/10/04 09:34:13;;;;;;;46.05;42.83;;;16.40;99.90;;;;;;5013353;28;20470;-72
2023/10/04 09:36:40;;;;;;;42.58;39.35;;;16.40;99.90;;;;;;5015310;28;20059;-72
2023/10/04 09:39:15;;;;;;;45.08;41.72;;;16.30;99.90;;;;;;5014182;28;20402;-72
2023/10/04 09:41:42;;;;;;;43.92;40.80;;;16.30;99.90;;;;;;4994900;28;20054;-72
2023/10/04 09:44:27;;;;;;;44.05;40.83;;;16.20;99.90;;;;;;5008693;28;20034;-71
2023/10/04 09:46:56;;;;;;;47.03;43.67;;;16.50;99.90;;;;;;5016474;28;20041;-72
2023/10/04 09:49:26;;;;;;;48.03;44.55;;;16.50;99.90;;;;;;5008418;28;20426;-72
2023/10/04 09:51:53;;;;;;;51.58;47.55;;;16.60;99.90;;;;;;5000016;28;20034;-73
2023/10/04 09:54:20;;;;;;;55.58;51.80;;;16.60;99.90;;;;;;5015421;28;20499;-72
2023/10/04 09:56:47;;;;;;;52.40;48.53;;;16.50;99.90;;;;;;5015571;28;20069;-72
2023/10/04 09:59:19;;;;;;;49.65;46.13;;;16.60;99.90;;;;;;5018487;28;20049;-72
2023/10/04 10:01:50;;;;;;;50.58;46.95;;;16.70;99.90;;;;;;5013445;28;20045;-72
2023/10/04 10:04:16;;;;;;;56.72;52.20;;;16.70;99.90;;;;;;5014683;28;20406;-72
2023/10/04 10:07:09;;;;;;;53.08;48.75;;;16.70;99.90;;;;;;5018301;28;20030;-72
2023/10/04 10:09:40;;;;;;;49.13;45.42;;;16.70;99.90;;;;;;5013991;28;20056;-72
2023/10/04 10:12:06;;;;;;;51.05;47.05;;;16.70;99.90;;;;;;5008441;28;20029;-72
2023/10/04 10:14:33;;;;;;;48.95;45.28;;;16.80;99.90;;;;;;5013570;28;20053;-72
2023/10/04 10:16:59;;;;;;;50.92;47.42;;;17.00;99.90;;;;;;5017240;28;20126;-72
2023/10/04 10:19:26;;;;;;;50.67;47.20;;;17.10;99.90;;;;;;5012842;28;20030;-73
2023/10/04 10:22:08;;;;;;;58.75;55.17;;;17.20;99.90;;;;;;5002916;28;20444;-72
2023/10/04 10:24:34;;;;;;;55.92;52.35;;;17.00;99.90;;;;;;5013867;28;20037;-72
2023/10/04 10:27:06;;;;;;;58.45;54.80;;;17.10;99.90;;;;;;5012892;28;20048;-72
2023/10/04 10:29:32;;;;;;;58.80;54.88;;;17.20;99.90;;;;;;5012871;28;20049;-72
2023/10/04 10:32:00;;;;;;;52.55;48.88;;;17.20;99.90;;;;;;5012272;28;20045;-72
2023/10/04 10:34:27;;;;;;;60.75;56.90;;;17.30;99.90;;;;;;5005653;28;20041;-72
2023/10/04 10:37:10;;;;;;;59.70;55.85;;;17.30;99.90;;;;;;5013592;28;20068;-72
2023/10/04 10:39:47;;;;;;;58.70;55.10;;;17.40;99.90;;;;;;5012197;28;20083;-72
2023/10/04 10:42:14;;;;;;;54.65;51.25;;;17.40;99.90;;;;;;5016369;28;20482;-72
2023/10/04 10:44:40;;;;;;;61.53;57.58;;;17.30;99.90;;;;;;5020538;28;20479;-73
2023/10/04 10:47:18;;;;;;;63.85;60.08;;;17.40;99.90;;;;;;5012743;28;20061;-73
2023/10/04 10:50:03;;;;;;;59.30;55.55;;;17.50;99.90;;;;;;5011680;28;20034;-72
2023/10/04 10:52:38;;;;;;;57.55;53.92;;;17.50;99.90;;;;;;5013152;28;20038;-72
2023/10/04 10:55:16;;;;;;;55.25;51.65;;;17.50;99.90;;;;;;5012763;28;20498;-72
2023/10/04 10:57:47;;;;;;;61.80;57.42;;;17.60;99.90;;;;;;5016723;28;20041;-72
2023/10/04 11:02:43;;;;;;;60.53;56.95;;;17.60;99.90;;;;;;5019317;28;20037;-72
2023/10/04 11:05:10;;;;;;;60.60;56.88;;;17.70;99.90;;;;;;5012491;28;20029;-72
2023/10/04 11:07:37;;;;;;;61.50;57.88;;;17.70;99.90;;;;;;5012933;28;20474;-72
2023/10/04 11:10:05;;;;;;;56.47;52.78;;;17.90;99.90;;;;;;5013557;28;20037;-72
2023/10/04 11:12:37;;;;;;;58.83;54.83;;;17.90;99.90;;;;;;5011956;28;20506;-72
2023/10/04 11:15:06;;;;;;;58.33;54.45;;;17.90;99.90;;;;;;5019448;28;20049;-72
2023/10/04 11:17:35;;;;;;;62.08;57.83;;;17.80;99.90;;;;;;5011573;28;20053;-72
2023/10/04 11:20:09;;;;;;;60.47;56.30;;;17.90;99.90;;;;;;5022878;28;20041;-72
2023/10/04 11:22:39;;;;;;;56.38;52.90;;;18.00;99.90;;;;;;5032773;28;20037;-72
2023/10/04 11:25:06;;;;;;;53.30;50.00;;;18.00;99.90;;;;;;5030525;28;20065;-72
2023/10/04 11:27:32;;;;;;;54.60;50.97;;;18.00;99.90;;;;;;5032156;28;20037;-73
2023/10/04 11:29:59;;;;;;;56.88;53.20;;;18.10;99.90;;;;;;5031114;28;20030;-73
2023/10/04 11:32:30;;;;;;;49.90;46.42;;;18.10;99.90;;;;;;5016455;28;20037;-73
2023/10/04 11:35:08;;;;;;;55.35;52.03;;;18.20;99.90;;;;;;5010448;28;20096;-72
2023/10/04 11:37:43;;;;;;;57.55;53.70;;;18.30;99.90;;;;;;5012418;28;20562;-72
2023/10/04 11:40:13;;;;;;;56.40;52.75;;;18.40;99.90;;;;;;5021982;28;20062;-72
2023/10/04 11:42:41;;;;;;;53.13;49.75;;;18.30;99.90;;;;;;5016477;28;20030;-72
2023/10/04 11:45:17;;;;;;;67.40;63.00;;;18.20;99.90;;;;;;5011809;28;20042;-72
2023/10/04 11:47:43;;;;;;;58.72;55.13;;;18.40;99.90;;;;;;5011916;28;20052;-72
2023/10/04 11:50:10;;;;;;;63.35;59.40;;;18.40;99.90;;;;;;5010008;28;20041;-73
2023/10/04 11:52:36;;;;;;;59.70;56.22;;;18.50;99.90;;;;;;5012074;28;20435;-72
2023/10/04 11:55:04;;;;;;;64.10;59.85;;;18.60;99.90;;;;;;5017746;28;20041;-72
2023/10/04 11:57:37;;;;;;;96.20;91.07;;;18.70;99.90;;;;;;5026823;28;20042;-73
2023/10/04 12:00:25;;;;;;;144.30;136.13;;;18.80;99.90;;;;;;5011581;28;20037;-72
2023/10/04 12:02:52;;;;;;;82.50;77.68;;;18.80;99.90;;;;;;5011684;28;20072;-72
2023/10/04 12:05:18;;;;;;;144.13;136.70;;;18.90;99.90;;;;;;5017179;28;20037;-72
2023/10/04 12:07:44;;;;;;;171.82;162.60;;;19.10;99.90;;;;;;5020034;28;20396;-72
2023/10/04 12:10:13;;;;;;;136.25;129.07;;;19.20;99.90;;;;;;5012793;28;20479;-72
2023/10/04 12:12:40;;;;;;;179.10;169.63;;;19.10;99.90;;;;;;5012265;28;20038;-72
2023/10/04 12:15:08;;;;;;;141.23;133.82;;;19.20;99.90;;;;;;5011348;28;20061;-72
2023/10/04 12:17:34;;;;;;;114.57;108.70;;;19.20;99.90;;;;;;5011721;28;20045;-72
2023/10/04 12:20:06;;;;;;;116.93;110.72;;;19.30;99.90;;;;;;5012431;28;20049;-73
2023/10/04 12:22:32;;;;;;;160.13;151.77;;;19.20;99.90;;;;;;5010679;28;20072;-72
2023/10/04 12:24:59;;;;;;;147.00;139.50;;;19.30;99.90;;;;;;5011787;28;20030;-73
2023/10/04 12:27:27;;;;;;;120.70;114.55;;;19.40;99.90;;;;;;5011937;28;20050;-72
2023/10/04 12:29:53;;;;;;;132.38;125.65;;;19.60;99.90;;;;;;5011981;28;20396;-72
2023/10/04 12:32:19;;;;;;;132.32;125.28;;;19.90;99.90;;;;;;5011011;28;20045;-72
2023/10/04 12:34:46;;;;;;;147.90;140.43;;;20.30;99.90;;;;;;5011900;28;20026;-73
2023/10/04 12:37:12;;;;;;;170.98;162.15;;;20.50;99.90;;;;;;5012489;28;20045;-72
2023/10/04 12:39:38;;;;;;;250.02;237.27;;;20.40;99.90;;;;;;5011895;28;20038;-72